createdAt,value
2019-05-14T04:53:38.956Z,93.7
2019-05-14T04:58:40.828Z,93.4
2019-05-14T05:03:40.798Z,93.3
2019-05-14T05:08:43.732Z,93.4
2019-05-14T05:13:48.449Z,93.5
2019-05-14T05:18:48.979Z,93.4
2019-05-14T05:23:50.556Z,93.2
2019-05-14T05:33:55.458Z,93.2
2019-05-14T05:38:59.223Z,93.2
2019-05-14T05:44:00.394Z,93.2
2019-05-14T05:49:02.896Z,93
2019-05-14T05:54:05.211Z,93.2
2019-05-14T06:04:10.158Z,93.4
2019-05-14T06:09:12.511Z,93.1
2019-05-14T06:14:14.999Z,92.9
2019-05-14T06:19:18.493Z,93
2019-05-14T06:24:20.057Z,92.4
2019-05-14T06:29:22.270Z,91.4
2019-05-14T06:34:24.748Z,90.7
2019-05-14T06:39:28.214Z,89.1
2019-05-14T06:44:29.663Z,88.5
2019-05-14T06:49:32.053Z,89.5
2019-05-14T06:54:34.497Z,88.9
2019-05-14T06:59:38.037Z,83.4
2019-05-14T07:04:39.646Z,84.1
2019-05-14T07:14:44.238Z,88.1
2019-05-14T07:19:48.734Z,87.5
2019-05-14T07:24:49.814Z,85.2
2019-05-14T07:29:51.608Z,82.2
2019-05-14T07:34:54.043Z,80.7
2019-05-14T07:39:57.954Z,75.5
2019-05-14T07:44:59.028Z,70.9
2019-05-14T07:50:01.307Z,70.2
2019-05-14T07:55:03.776Z,71.8
2019-05-14T08:00:08.137Z,70
2019-05-14T08:05:08.836Z,69.8
2019-05-14T08:10:12.371Z,67.9
2019-05-14T08:15:18.461Z,67.8
2019-05-14T08:20:18.166Z,67.7
2019-05-14T08:25:18.959Z,66.4
2019-05-14T08:30:20.836Z,61.8
2019-05-14T08:35:23.341Z,61.1
2019-05-14T08:40:28.693Z,61.2
2019-05-14T08:45:28.425Z,63.5
2019-05-14T08:55:33.231Z,59.6
2019-05-14T09:15:42.928Z,59.9
2019-05-14T09:20:45.216Z,60.5
2019-05-14T09:25:52.341Z,61.2
2019-05-14T09:30:50.200Z,60
2019-05-14T09:36:09.422Z,62.3
2019-05-14T09:41:10.488Z,64.9
2019-05-14T09:45:58.655Z,66.5
2019-05-14T09:50:59.941Z,67.9
2019-05-14T09:56:02.364Z,69.2
2019-05-14T10:01:04.871Z,71.2
2019-05-14T10:06:09.656Z,68
2019-05-14T10:11:11.485Z,63.7
2019-05-14T10:16:12.281Z,64.5
2019-05-14T10:21:14.613Z,62
2019-05-14T10:26:18.506Z,63.9
2019-05-14T10:31:19.531Z,61.2
2019-05-14T10:36:22.084Z,59.4
2019-05-14T10:41:24.742Z,54.9
2019-05-14T10:46:28.925Z,54.7
2019-05-14T10:51:29.173Z,55.3
2019-05-14T10:56:31.607Z,54.5
2019-05-14T11:01:34.223Z,54.6
2019-05-14T11:06:38.681Z,55
2019-05-14T11:11:38.941Z,55.7
2019-05-14T11:16:42.013Z,52.6
2019-05-14T11:21:43.811Z,53.2
2019-05-14T11:26:48.247Z,52.6
2019-05-14T11:31:48.857Z,52.1
2019-05-14T11:36:51.170Z,52.6
2019-05-14T11:41:53.642Z,53.7
2019-05-14T11:46:57.804Z,50.6
2019-05-14T11:52:07.126Z,49.9
2019-05-14T11:57:00.893Z,49
2019-05-14T12:02:03.421Z,50.8
2019-05-14T12:07:05.775Z,49.5
2019-05-14T12:12:12.123Z,49.8
2019-05-14T12:17:10.645Z,49.5
2019-05-14T12:22:13.600Z,50.8
2019-05-14T12:27:15.906Z,51.4
2019-05-14T12:32:18.823Z,52.5
2019-05-14T12:37:20.488Z,53.1
2019-05-14T12:42:23.057Z,53.7
2019-05-14T12:47:25.418Z,54.9
2019-05-14T12:52:29.666Z,57
2019-05-14T12:57:30.337Z,60.1
2019-05-14T13:02:32.668Z,65.8
2019-05-14T13:07:35.054Z,59.6
2019-05-14T13:17:40.000Z,55.2
2019-05-14T13:22:46.186Z,53.5
2019-05-14T13:27:44.793Z,51.4
2019-05-14T13:32:48.702Z,56.1
2019-05-14T13:37:49.815Z,58.9
2019-05-14T13:42:52.127Z,63.2
2019-05-14T13:47:54.568Z,67.1
2019-05-14T13:53:02.232Z,75.1
2019-05-14T13:57:59.778Z,77.6
2019-05-14T14:03:01.876Z,77.5
2019-05-14T14:08:04.480Z,79.1
2019-05-14T14:13:10.929Z,80.1
2019-05-14T14:18:09.209Z,79.1
2019-05-14T14:23:21.706Z,78.6
2019-05-14T14:28:14.121Z,78.6
2019-05-14T14:33:18.486Z,79.3
2019-05-14T14:38:19.963Z,81.3
2019-05-14T14:43:21.562Z,84.7
2019-05-14T14:48:24.019Z,90.6
2019-05-14T14:53:42.680Z,93.7
2019-05-14T14:58:28.835Z,90.4
2019-05-14T15:03:31.259Z,76.2
2019-05-14T15:08:33.672Z,69.8
2019-05-14T15:13:38.417Z,73.7
2019-05-14T15:18:38.867Z,78
2019-05-14T15:23:43.535Z,80.1
2019-05-14T15:28:43.392Z,82.3
2019-05-14T15:33:50.224Z,84.7
2019-05-14T15:38:48.719Z,86.3
2019-05-14T15:43:50.771Z,88.9
2019-05-14T15:48:53.274Z,91.6
2019-05-14T15:54:07.124Z,90.3
2019-05-14T15:59:00.874Z,74.1
2019-05-14T16:04:00.771Z,65.1
2019-05-14T16:09:02.921Z,54.9
2019-05-14T16:14:05.393Z,50.4
2019-05-14T16:19:08.313Z,49.7
2019-05-14T16:24:10.267Z,48.7
2019-05-14T16:29:12.792Z,47.4
2019-05-14T16:34:15.082Z,41.7
2019-05-14T16:39:19.175Z,43.5
2019-05-14T16:44:20.202Z,46.1
2019-05-14T16:49:22.483Z,48.9
2019-05-14T16:54:25.104Z,50.6
2019-05-14T16:59:29.434Z,51.3
2019-05-14T17:04:29.722Z,51.8
2019-05-14T17:09:32.261Z,51.7
2019-05-14T17:14:34.610Z,52.1
2019-05-14T17:19:38.543Z,52.6
2019-05-14T17:24:40.067Z,53.1
2019-05-14T17:29:42.263Z,53.4
2019-05-14T17:39:48.902Z,53.1
2019-05-14T17:44:49.237Z,53
2019-05-14T17:49:51.951Z,52.6
2019-05-14T17:54:54.184Z,52.6
2019-05-14T17:59:58.339Z,52.8
2019-05-14T18:04:59.395Z,52.2
2019-05-14T18:10:02.176Z,52.2
2019-05-14T18:15:04.146Z,52.3
2019-05-14T18:20:08.338Z,52.4
2019-05-14T18:25:08.782Z,52.6
2019-05-14T18:30:11.302Z,52.8
2019-05-14T18:35:13.674Z,53.2
2019-05-14T18:40:18.304Z,53.3
2019-05-14T18:45:19.064Z,53.2
2019-05-14T18:50:20.965Z,53
2019-05-14T18:55:23.458Z,53
2019-05-14T19:00:25.863Z,53
2019-05-14T19:05:29.444Z,53.1
2019-05-14T19:10:31.518Z,53.2
2019-05-14T19:15:33.213Z,53.5
2019-05-14T19:20:35.675Z,53.7
2019-05-14T19:25:38.889Z,53.7
2019-05-14T19:30:40.632Z,53.7
2019-05-14T19:35:42.962Z,54
2019-05-14T19:40:49.474Z,54.2
2019-05-14T19:45:48.514Z,54.3
2019-05-14T19:50:50.354Z,54.4
2019-05-14T19:55:53.157Z,54.5
2019-05-14T20:00:55.257Z,54.7
2019-05-14T20:05:57.607Z,54.7
2019-05-14T20:11:00.070Z,54.7
2019-05-14T20:16:02.439Z,54.6
2019-05-14T20:26:08.229Z,54.5
2019-05-14T20:31:10.742Z,54.5
2019-05-14T20:36:12.238Z,54.6
2019-05-14T20:41:14.853Z,54.7
2019-05-14T20:46:18.515Z,54.8
2019-05-14T20:51:19.557Z,55
2019-05-14T20:56:22.179Z,55
2019-05-14T21:01:24.633Z,55.1
2019-05-14T21:06:27.981Z,55.2
2019-05-14T21:11:29.373Z,55.4
2019-05-14T21:16:31.773Z,55.5
2019-05-14T21:21:34.497Z,55.8
2019-05-14T21:26:36.974Z,55.9
2019-05-14T21:31:39.268Z,56
2019-05-14T21:36:41.474Z,56.2
2019-05-14T21:41:44.130Z,56.4
